Hlavní strana
METAR-TAF:

METAR-TAF

Letiště :

Haugesund, Norsko

zeměpisná šířka: 59-21N, zeměpisná délka: 005-13E, výška: 2 m

Aktuální stav počasí

Zpráva byla vytvořena před 35 minutami, v 11:50 UTC
Severoseverozápadní vítr 7 kt
Teplota 10°C
Vlhkost vzduchu 93%
Tlak 997 hPa
Viditelnost 10 km a více
Polojasno ve výšce 500 ft
Oblačno až skoro zataženo ve výšce 700 ft
slabé mrholení

METAR: ENHD 041150Z 34007KT 9999 -DZ SCT005 BKN007 10/09 Q0997

Čas: 14:25 (12:25 UTC)

Předpověď počasí

Zpráva byla vytvořena před 1 hodinou a 25 minutami, v 11:00 UTC
Předpověď platná od 04 v 12 UTC do 04 v 19 UTC
Severoseverozápadní vítr 8 kt
Viditelnost 10 km a více
Polojasno ve výšce 800 ft
Oblačno až skoro zataženo ve výšce 1500 ft
slabý déšť
Dočasný
od 04 v 12 UTC do 04 v 15 UTC
Viditelnost: 4000 m
Oblačno až skoro zataženo ve výšce 800 ft
déšť, kouřmo

TAF: ENHD 041100Z 0412/0419 33008KT 9999 -RA SCT008 BKN015 TEMPO 0412/0415 4000 RA BR BKN008

Stav a předpovědi počasí z více než 4 000 letišť (zprávy METAR a TAF).

Červené a žluté tečky na mapě představují dostupné meteorologické stanice.

Když kurzor umístíte na tečku, zobrazí se název stanice.

Pak kliknutím zobrazíte stav a předpověď počasí.

Chcete-li změnit mapu, kliknutím na zelené tlačítko se znaménkem +mapu přiblížíte, kliknutím na zelené tlačítko se znaménkem – mapu oddálíte a kliknutím na zelené šipky přejdete na sousední mapy.


METAR-TAF: